Time,TemperatureF,DewpointF,PressureIn,WindDirection,WindDirectionDegrees,WindSpeedMPH,WindSpeedGustMPH,Humidity,HourlyPrecipIn,Conditions,Clouds,dailyrainin,SolarRadiationWatts/m^2,SoftwareType,DateUTC
2013-10-25 00:02:00,28.3,23.5,30.42,SSW,205,5.0,6.0,82,0.00,,,0.00,0,Wunderground v.1.15,2013-10-25 05:02:00,
2013-10-25 00:07:00,28.3,23.8,30.42,SSW,205,5.0,6.0,83,0.00,,,0.00,0,Wunderground v.1.15,2013-10-25 05:07:00,
2013-10-25 00:12:00,28.3,23.8,30.43,SSW,205,5.0,5.0,83,0.00,,,0.00,0,Wunderground v.1.15,2013-10-25 05:12:00,
2013-10-25 00:17:00,28.3,23.8,30.42,SSW,205,5.0,5.0,83,0.00,,,0.00,0,Wunderground v.1.15,2013-10-25 05:17:00,
2013-10-25 00:22:00,28.2,23.7,30.42,SSW,205,4.0,5.0,83,0.00,,,0.00,0,Wunderground v.1.15,2013-10-25 05:22:00,
2013-10-25 00:27:00,28.1,23.3,30.42,SSW,205,4.0,5.0,82,0.00,,,0.00,0,Wunderground v.1.15,2013-10-25 05:27:00,
2013-10-25 00:32:00,28.0,23.2,30.42,SSW,205,5.0,5.0,82,0.00,,,0.00,0,Wunderground v.1.15,2013-10-25 05:32:00,
2013-10-25 00:38:00,27.8,23.0,30.42,SSW,205,5.0,5.0,82,0.00,,,0.00,0,Wunderground v.1.15,2013-10-25 05:38:00,
2013-10-25 00:43:00,27.6,23.1,30.42,SSW,196,6.0,6.0,83,0.00,,,0.00,0,Wunderground v.1.15,2013-10-25 05:43:00,
2013-10-25 00:48:00,27.5,23.0,30.42,SSW,193,7.0,7.0,83,0.00,,,0.00,0,Wunderground v.1.15,2013-10-25 05:48:00,
2013-10-25 00:53:00,27.7,23.8,30.42,SSW,194,7.0,7.0,85,0.00,,,0.00,0,Wunderground v.1.15,2013-10-25 05:53:00,
2013-10-25 00:58:00,28.1,24.2,30.42,South,191,5.0,7.0,85,0.00,,,0.00,0,Wunderground v.1.15,2013-10-25 05:58:00,
2013-10-25 01:03:00,28.3,24.1,30.42,South,188,7.0,7.0,84,0.00,,,0.00,0,Wunderground v.1.15,2013-10-25 06:03:00,
2013-10-25 01:08:00,28.4,24.2,30.42,South,189,5.0,7.0,84,0.00,,,0.00,0,Wunderground v.1.15,2013-10-25 06:08:00,
2013-10-25 01:13:00,28.4,24.2,30.42,South,189,5.0,6.0,84,0.00,,,0.00,0,Wunderground v.1.15,2013-10-25 06:13:00,
2013-10-25 01:18:00,28.5,24.3,30.42,South,190,6.0,6.0,84,0.00,,,0.00,0,Wunderground v.1.15,2013-10-25 06:18:00,
2013-10-25 01:23:00,28.6,24.4,30.42,South,190,7.0,7.0,84,0.00,,,0.00,0,Wunderground v.1.15,2013-10-25 06:23:00,
2013-10-25 01:28:00,28.6,24.4,30.42,South,190,6.0,7.0,84,0.00,,,0.00,0,Wunderground v.1.15,2013-10-25 06:28:00,
2013-10-25 01:34:00,28.5,24.3,30.42,South,190,5.0,6.0,84,0.00,,,0.00,0,Wunderground v.1.15,2013-10-25 06:34:00,
2013-10-25 01:39:00,28.4,24.2,30.42,South,190,5.0,6.0,84,0.00,,,0.00,0,Wunderground v.1.15,2013-10-25 06:39:00,
2013-10-25 01:44:00,28.1,23.6,30.42,South,190,4.0,5.0,83,0.00,,,0.00,0,Wunderground v.1.15,2013-10-25 06:44:00,
2013-10-25 01:49:00,27.9,23.4,30.42,South,190,5.0,6.0,83,0.00,,,0.00,0,Wunderground v.1.15,2013-10-25 06:49:00,
2013-10-25 01:54:00,27.7,23.5,30.42,South,190,5.0,5.0,84,0.00,,,0.00,0,Wunderground v.1.15,2013-10-25 06:54:00,
2013-10-25 01:59:00,27.7,23.5,30.42,SSW,194,6.0,6.0,84,0.00,,,0.00,0,Wunderground v.1.15,2013-10-25 06:59:00,
2013-10-25 02:04:00,27.6,23.4,30.42,SSW,199,6.0,6.0,84,0.00,,,0.00,0,Wunderground v.1.15,2013-10-25 07:04:00,
2013-10-25 02:09:00,27.3,23.1,30.42,SSW,199,5.0,6.0,84,0.00,,,0.00,0,Wunderground v.1.15,2013-10-25 07:09:00,
2013-10-25 02:14:00,27.1,22.9,30.42,SSW,200,5.0,6.0,84,0.00,,,0.00,0,Wunderground v.1.15,2013-10-25 07:14:00,
2013-10-25 02:19:00,27.0,23.1,30.43,SSW,202,5.0,7.0,85,0.00,,,0.00,0,Wunderground v.1.15,2013-10-25 07:19:00,
2013-10-25 02:24:00,27.0,23.1,30.42,SSW,202,6.0,6.0,85,0.00,,,0.00,0,Wunderground v.1.15,2013-10-25 07:24:00,
2013-10-25 02:29:00,27.1,23.5,30.42,SSW,203,5.0,7.0,86,0.00,,,0.00,0,Wunderground v.1.15,2013-10-25 07:29:00,
2013-10-25 02:34:00,27.1,23.2,30.42,SSW,201,4.0,6.0,85,0.00,,,0.00,0,Wunderground v.1.15,2013-10-25 07:34:00,
2013-10-25 02:39:00,26.9,23.0,30.42,SSW,202,5.0,6.0,85,0.00,,,0.00,0,Wunderground v.1.15,2013-10-25 07:39:00,
2013-10-25 02:44:00,26.9,23.0,30.42,SSW,202,5.0,6.0,85,0.00,,,0.00,0,Wunderground v.1.15,2013-10-25 07:44:00,
2013-10-25 02:49:00,27.0,23.4,30.42,SSW,202,5.0,6.0,86,0.00,,,0.00,0,Wunderground v.1.15,2013-10-25 07:49:00,
2013-10-25 02:54:00,27.0,23.4,30.42,SSW,202,3.0,5.0,86,0.00,,,0.00,0,Wunderground v.1.15,2013-10-25 07:54:00,
2013-10-25 02:59:00,27.2,23.8,30.42,SSW,202,5.0,5.0,87,0.00,,,0.00,0,Wunderground v.1.15,2013-10-25 07:59:00,
2013-10-25 03:05:00,27.8,24.4,30.42,SSW,202,4.0,5.0,87,0.00,,,0.00,0,Wunderground v.1.15,2013-10-25 08:05:00,
2013-10-25 03:10:00,28.0,24.6,30.42,SSW,202,4.0,4.0,87,0.00,,,0.00,0,Wunderground v.1.15,2013-10-25 08:10:00,
2013-10-25 03:15:00,28.3,24.9,30.42,SSW,202,4.0,4.0,87,0.00,,,0.00,0,Wunderground v.1.15,2013-10-25 08:15:00,
2013-10-25 03:20:00,28.4,25.0,30.42,SSW,202,5.0,5.0,87,0.00,,,0.00,0,Wunderground v.1.15,2013-10-25 08:20:00,
2013-10-25 03:25:00,28.4,25.0,30.42,SSW,196,5.0,6.0,87,0.00,,,0.00,0,Wunderground v.1.15,2013-10-25 08:25:00,
2013-10-25 03:30:00,28.5,25.1,30.42,SSW,194,6.0,6.0,87,0.00,,,0.00,0,Wunderground v.1.15,2013-10-25 08:30:00,
2013-10-25 03:36:00,28.6,25.2,30.42,SSW,194,6.0,6.0,87,0.00,,,0.00,0,Wunderground v.1.15,2013-10-25 08:36:00,
2013-10-25 03:41:00,28.9,25.5,30.42,SSW,192,6.0,7.0,87,0.00,,,0.00,0,Wunderground v.1.15,2013-10-25 08:41:00,
2013-10-25 03:46:00,29.2,25.8,30.41,South,184,7.0,7.0,87,0.00,,,0.00,0,Wunderground v.1.15,2013-10-25 08:46:00,
2013-10-25 03:51:00,29.6,26.2,30.41,South,186,6.0,7.0,87,0.00,,,0.00,0,Wunderground v.1.15,2013-10-25 08:51:00,
2013-10-25 03:56:00,29.9,26.2,30.42,SSW,192,5.0,7.0,86,0.00,,,0.00,0,Wunderground v.1.15,2013-10-25 08:56:00,
2013-10-25 04:01:00,30.2,26.5,30.41,SSW,192,5.0,5.0,86,0.00,,,0.00,0,Wunderground v.1.15,2013-10-25 09:01:00,
2013-10-25 04:06:00,30.4,26.7,30.42,SSW,192,5.0,5.0,86,0.00,,,0.00,0,Wunderground v.1.15,2013-10-25 09:06:00,
2013-10-25 04:12:00,30.7,27.0,30.41,SSW,192,5.0,6.0,86,0.00,,,0.00,0,Wunderground v.1.15,2013-10-25 09:12:00,
2013-10-25 04:17:00,31.0,27.3,30.41,SSW,192,5.0,6.0,86,0.00,,,0.00,0,Wunderground v.1.15,2013-10-25 09:17:00,
2013-10-25 04:22:00,31.2,27.5,30.41,SSW,193,6.0,6.0,86,0.00,,,0.00,0,Wunderground v.1.15,2013-10-25 09:22:00,
2013-10-25 04:27:00,31.5,27.8,30.41,South,184,5.0,7.0,86,0.00,,,0.00,0,Wunderground v.1.15,2013-10-25 09:27:00,
2013-10-25 04:32:00,31.9,28.2,30.40,South,175,8.0,9.0,86,0.00,,,0.00,0,Wunderground v.1.15,2013-10-25 09:32:00,
2013-10-25 04:37:00,32.3,28.3,30.40,South,188,8.0,10.0,85,0.00,,,0.00,0,Wunderground v.1.15,2013-10-25 09:37:00,
2013-10-25 04:42:00,32.7,28.4,30.40,SSW,198,7.0,11.0,84,0.00,,,0.00,0,Wunderground v.1.15,2013-10-25 09:42:00,
2013-10-25 04:47:00,33.0,28.1,30.40,SSW,207,6.0,11.0,82,0.00,,,0.00,0,Wunderground v.1.15,2013-10-25 09:47:00,
2013-10-25 04:53:00,33.3,28.1,30.40,SSW,202,6.0,8.0,81,0.00,,,0.00,0,Wunderground v.1.15,2013-10-25 09:53:00,
2013-10-25 04:57:00,33.1,27.6,30.40,SSW,198,4.0,8.0,80,0.00,,,0.00,0,Wunderground v.1.15,2013-10-25 09:57:00,
2013-10-25 05:03:00,33.0,27.8,30.40,SSW,198,5.0,5.0,81,0.00,,,0.00,0,Wunderground v.1.15,2013-10-25 10:03:00,
2013-10-25 05:08:00,33.0,27.8,30.41,SSW,202,6.0,6.0,81,0.00,,,0.00,0,Wunderground v.1.15,2013-10-25 10:08:00,
2013-10-25 05:13:00,33.0,27.8,30.41,SSW,198,4.0,6.0,81,0.00,,,0.00,0,Wunderground v.1.15,2013-10-25 10:13:00,
2013-10-25 05:18:00,33.1,27.9,30.41,SSW,198,4.0,6.0,81,0.00,,,0.00,0,Wunderground v.1.15,2013-10-25 10:18:00,
2013-10-25 05:23:00,33.0,27.8,30.41,SSW,198,5.0,6.0,81,0.00,,,0.00,0,Wunderground v.1.15,2013-10-25 10:23:00,
2013-10-25 05:28:00,32.8,27.3,30.41,SSW,199,6.0,6.0,80,0.00,,,0.00,0,Wunderground v.1.15,2013-10-25 10:28:00,
2013-10-25 05:33:00,32.4,26.9,30.41,SSW,194,6.0,8.0,80,0.00,,,0.00,0,Wunderground v.1.15,2013-10-25 10:33:00,
2013-10-25 05:38:00,32.2,26.7,30.41,SSW,192,3.0,8.0,80,0.00,,,0.00,0,Wunderground v.1.15,2013-10-25 10:38:00,
2013-10-25 05:43:00,32.0,26.5,30.41,SSW,192,2.0,5.0,80,0.00,,,0.00,0,Wunderground v.1.15,2013-10-25 10:43:00,
2013-10-25 05:48:00,31.7,26.2,30.41,SSW,192,5.0,6.0,80,0.00,,,0.00,0,Wunderground v.1.15,2013-10-25 10:48:00,
2013-10-25 05:53:00,31.5,26.0,30.41,SSW,193,5.0,7.0,80,0.00,,,0.00,0,Wunderground v.1.15,2013-10-25 10:53:00,
2013-10-25 05:58:00,31.2,26.0,30.41,SSW,193,4.0,7.0,81,0.00,,,0.00,0,Wunderground v.1.15,2013-10-25 10:58:00,
2013-10-25 06:03:00,31.0,25.9,30.41,SSW,193,5.0,5.0,81,0.00,,,0.00,0,Wunderground v.1.15,2013-10-25 11:03:00,
2013-10-25 06:08:00,31.1,26.2,30.41,SSW,194,4.0,6.0,82,0.00,,,0.00,0,Wunderground v.1.15,2013-10-25 11:08:00,
2013-10-25 06:13:00,31.2,26.6,30.41,SSW,194,5.0,6.0,83,0.00,,,0.00,0,Wunderground v.1.15,2013-10-25 11:13:00,
2013-10-25 06:18:00,31.4,26.8,30.41,SSW,197,6.0,7.0,83,0.00,,,0.00,0,Wunderground v.1.15,2013-10-25 11:18:00,
2013-10-25 06:23:00,31.7,27.1,30.41,South,189,7.0,8.0,83,0.00,,,0.00,0,Wunderground v.1.15,2013-10-25 11:23:00,
2013-10-25 06:28:00,32.0,27.4,30.41,SSW,193,7.0,8.0,83,0.00,,,0.00,0,Wunderground v.1.15,2013-10-25 11:28:00,
2013-10-25 06:33:00,32.1,27.5,30.42,SSW,196,5.0,7.0,83,0.00,,,0.00,0,Wunderground v.1.15,2013-10-25 11:33:00,
2013-10-25 06:38:00,32.2,27.3,30.41,SSW,192,7.0,8.0,82,0.00,,,0.00,0,Wunderground v.1.15,2013-10-25 11:38:00,
2013-10-25 06:43:00,32.3,27.4,30.41,South,191,7.0,8.0,82,0.00,,,0.00,0,Wunderground v.1.15,2013-10-25 11:43:00,
2013-10-25 06:48:00,32.5,27.6,30.41,SSW,196,8.0,9.0,82,0.00,,,0.00,0,Wunderground v.1.15,2013-10-25 11:48:00,
2013-10-25 06:53:00,32.7,28.1,30.41,SSW,200,7.0,9.0,83,0.00,,,0.00,0,Wunderground v.1.15,2013-10-25 11:53:00,
2013-10-25 06:58:00,32.9,28.0,30.41,SSW,196,8.0,9.0,82,0.00,,,0.00,0,Wunderground v.1.15,2013-10-25 11:58:00,
2013-10-25 07:03:00,33.1,28.2,30.40,SSW,193,8.0,9.0,82,0.00,,,0.00,0,Wunderground v.1.15,2013-10-25 12:03:00,
2013-10-25 07:08:00,33.1,27.9,30.40,SSW,196,8.0,11.0,81,0.00,,,0.00,0,Wunderground v.1.15,2013-10-25 12:08:00,
2013-10-25 07:13:00,33.0,27.5,30.40,SSW,199,10.0,11.0,80,0.00,,,0.00,0,Wunderground v.1.15,2013-10-25 12:13:00,
2013-10-25 07:18:00,32.8,27.0,30.40,SSW,200,8.0,11.0,79,0.00,,,0.00,0,Wunderground v.1.15,2013-10-25 12:18:00,
2013-10-25 07:23:00,32.5,26.7,30.40,SSW,197,7.0,10.0,79,0.00,,,0.00,0,Wunderground v.1.15,2013-10-25 12:23:00,
2013-10-25 07:28:00,32.1,26.3,30.40,SSW,200,9.0,10.0,79,0.00,,,0.00,0,Wunderground v.1.15,2013-10-25 12:28:00,
2013-10-25 07:33:00,31.9,26.1,30.40,SSW,198,7.0,9.0,79,0.00,,,0.00,0,Wunderground v.1.15,2013-10-25 12:33:00,
2013-10-25 07:38:00,31.7,26.2,30.40,SSW,199,7.0,9.0,80,0.00,,,0.00,0,Wunderground v.1.15,2013-10-25 12:38:00,
2013-10-25 07:43:00,31.4,25.9,30.40,SSW,198,6.0,9.0,80,0.00,,,0.00,0,Wunderground v.1.15,2013-10-25 12:43:00,
2013-10-25 07:48:00,31.2,25.7,30.40,SSW,193,7.0,9.0,80,0.00,,,0.00,5,Wunderground v.1.15,2013-10-25 12:48:00,
2013-10-25 07:53:00,31.1,26.0,30.40,SSW,196,9.0,9.0,81,0.00,,,0.00,7,Wunderground v.1.15,2013-10-25 12:53:00,
2013-10-25 07:58:00,31.1,26.0,30.40,SSW,194,7.0,9.0,81,0.00,,,0.00,11,Wunderground v.1.15,2013-10-25 12:58:00,
2013-10-25 08:03:00,31.2,26.0,30.40,SSW,192,6.0,8.0,81,0.00,,,0.00,16,Wunderground v.1.15,2013-10-25 13:03:00,
2013-10-25 08:08:00,31.2,26.0,30.40,South,190,8.0,9.0,81,0.00,,,0.00,18,Wunderground v.1.15,2013-10-25 13:08:00,
2013-10-25 08:13:00,31.4,26.5,30.40,South,188,7.0,9.0,82,0.00,,,0.00,23,Wunderground v.1.15,2013-10-25 13:13:00,
2013-10-25 08:18:00,31.7,26.8,30.40,South,190,7.0,10.0,82,0.00,,,0.00,32,Wunderground v.1.15,2013-10-25 13:18:00,
2013-10-25 08:23:00,32.0,27.1,30.40,SSW,193,10.0,10.0,82,0.00,,,0.00,40,Wunderground v.1.15,2013-10-25 13:23:00,
2013-10-25 08:28:00,32.4,27.2,30.40,SSW,192,9.0,11.0,81,0.00,,,0.00,53,Wunderground v.1.15,2013-10-25 13:28:00,
2013-10-25 08:33:00,32.9,27.4,30.40,SSW,196,11.0,13.0,80,0.00,,,0.00,63,Wunderground v.1.15,2013-10-25 13:33:00,
2013-10-25 08:38:00,33.4,27.9,30.40,SSW,199,9.0,13.0,80,0.00,,,0.00,81,Wunderground v.1.15,2013-10-25 13:38:00,
2013-10-25 08:44:00,33.9,28.1,30.40,SSW,192,8.0,11.0,79,0.00,,,0.00,97,Wunderground v.1.15,2013-10-25 13:44:00,
2013-10-25 08:49:00,34.3,28.2,30.40,SSW,196,10.0,12.0,78,0.00,,,0.00,114,Wunderground v.1.15,2013-10-25 13:49:00,
2013-10-25 08:54:00,34.8,28.6,30.40,SSW,197,11.0,13.0,78,0.00,,,0.00,128,Wunderground v.1.15,2013-10-25 13:54:00,
2013-10-25 08:59:00,35.2,29.0,30.40,SSW,194,9.0,13.0,78,0.00,,,0.00,148,Wunderground v.1.15,2013-10-25 13:59:00,
2013-10-25 09:04:00,35.8,29.3,30.40,SSW,200,13.0,14.0,77,0.00,,,0.00,165,Wunderground v.1.15,2013-10-25 14:04:00,
2013-10-25 09:09:00,36.2,29.4,30.40,SSW,197,11.0,14.0,76,0.00,,,0.00,183,Wunderground v.1.15,2013-10-25 14:09:00,
2013-10-25 09:14:00,36.8,29.6,30.40,SSW,203,14.0,15.0,75,0.00,,,0.00,200,Wunderground v.1.15,2013-10-25 14:14:00,
2013-10-25 09:19:00,37.4,29.9,30.40,SSW,196,12.0,16.0,74,0.00,,,0.00,216,Wunderground v.1.15,2013-10-25 14:19:00,
2013-10-25 09:24:00,38.0,30.1,30.40,South,190,11.0,15.0,73,0.00,,,0.00,232,Wunderground v.1.15,2013-10-25 14:24:00,
2013-10-25 09:30:00,38.6,30.7,30.40,South,190,12.0,16.0,73,0.00,,,0.00,246,Wunderground v.1.15,2013-10-25 14:30:00,
2013-10-25 09:35:00,39.2,30.6,30.40,South,190,12.0,18.0,71,0.00,,,0.00,260,Wunderground v.1.15,2013-10-25 14:35:00,
2013-10-25 09:40:00,39.9,31.3,30.40,SSW,199,12.0,13.0,71,0.00,,,0.00,276,Wunderground v.1.15,2013-10-25 14:40:00,
2013-10-25 09:45:00,40.6,31.2,30.40,SSW,209,14.0,17.0,69,0.00,,,0.00,292,Wunderground v.1.15,2013-10-25 14:45:00,
2013-10-25 09:50:00,41.3,31.2,30.40,SSW,213,20.0,20.0,67,0.00,,,0.00,306,Wunderground v.1.15,2013-10-25 14:50:00,
2013-10-25 09:56:00,42.0,31.5,30.40,SW,219,16.0,20.0,66,0.00,,,0.00,322,Wunderground v.1.15,2013-10-25 14:56:00,
2013-10-25 10:01:00,42.8,31.5,30.39,SSW,209,11.0,19.0,64,0.00,,,0.00,336,Wunderground v.1.15,2013-10-25 15:01:00,
2013-10-25 10:06:00,43.6,31.4,30.39,SSW,200,20.0,22.0,62,0.00,,,0.00,348,Wunderground v.1.15,2013-10-25 15:06:00,
2013-10-25 10:11:00,44.2,31.6,30.39,SW,216,13.0,20.0,61,0.00,,,0.00,362,Wunderground v.1.15,2013-10-25 15:11:00,
2013-10-25 10:17:00,44.9,31.8,30.39,SW,216,18.0,22.0,60,0.00,,,0.00,376,Wunderground v.1.15,2013-10-25 15:17:00,
2013-10-25 10:22:00,45.5,31.6,30.39,SSW,207,17.0,19.0,58,0.00,,,0.00,388,Wunderground v.1.15,2013-10-25 15:22:00,
2013-10-25 10:27:00,46.1,31.7,30.38,SSW,207,15.0,22.0,57,0.00,,,0.00,399,Wunderground v.1.15,2013-10-25 15:27:00,
2013-10-25 10:32:00,46.6,31.3,30.38,SW,219,18.0,26.0,55,0.00,,,0.00,415,Wunderground v.1.15,2013-10-25 15:32:00,
2013-10-25 10:37:00,47.1,31.3,30.38,SW,215,25.0,26.0,54,0.00,,,0.00,425,Wunderground v.1.15,2013-10-25 15:37:00,
2013-10-25 10:42:00,47.6,31.3,30.38,SW,223,20.0,24.0,53,0.00,,,0.00,438,Wunderground v.1.15,2013-10-25 15:42:00,
2013-10-25 10:47:00,48.0,30.2,30.38,SW,219,23.0,27.0,50,0.00,,,0.00,450,Wunderground v.1.15,2013-10-25 15:47:00,
2013-10-25 10:52:00,48.4,30.6,30.38,SSW,210,21.0,26.0,50,0.00,,,0.00,461,Wunderground v.1.15,2013-10-25 15:52:00,
2013-10-25 10:57:00,48.7,30.4,30.37,SSW,209,15.0,26.0,49,0.00,,,0.00,471,Wunderground v.1.15,2013-10-25 15:57:00,
2013-10-25 11:02:00,49.2,30.3,30.37,SSW,205,25.0,27.0,48,0.00,,,0.00,482,Wunderground v.1.15,2013-10-25 16:02:00,
2013-10-25 11:07:00,49.6,30.2,30.37,SSW,204,23.0,28.0,47,0.00,,,0.00,490,Wunderground v.1.15,2013-10-25 16:07:00,
2013-10-25 11:12:00,49.8,29.8,30.37,SW,218,25.0,26.0,46,0.00,,,0.00,499,Wunderground v.1.15,2013-10-25 16:12:00,
2013-10-25 11:17:00,50.1,30.1,30.36,SW,216,20.0,27.0,46,0.00,,,0.00,510,Wunderground v.1.15,2013-10-25 16:17:00,
2013-10-25 11:22:00,50.3,30.8,30.36,SSW,213,16.0,23.0,47,0.00,,,0.00,520,Wunderground v.1.15,2013-10-25 16:22:00,
2013-10-25 11:27:00,51.0,31.5,30.36,SSW,195,20.0,25.0,47,0.00,,,0.00,527,Wunderground v.1.15,2013-10-25 16:27:00,
2013-10-25 11:32:00,51.4,30.7,30.36,SSW,209,22.0,25.0,45,0.00,,,0.00,538,Wunderground v.1.15,2013-10-25 16:32:00,
2013-10-25 11:37:00,51.3,30.7,30.36,SSW,202,24.0,27.0,45,0.00,,,0.00,547,Wunderground v.1.15,2013-10-25 16:37:00,
2013-10-25 11:43:00,51.4,30.7,30.36,SW,220,20.0,27.0,45,0.00,,,0.00,552,Wunderground v.1.15,2013-10-25 16:43:00,
2013-10-25 11:48:00,51.5,31.4,30.36,SSW,211,17.0,27.0,46,0.00,,,0.00,561,Wunderground v.1.15,2013-10-25 16:48:00,
2013-10-25 11:53:00,52.0,31.3,30.35,SSW,196,17.0,24.0,45,0.00,,,0.00,566,Wunderground v.1.15,2013-10-25 16:53:00,
2013-10-25 11:58:00,52.3,31.6,30.36,SSW,194,15.0,26.0,45,0.00,,,0.00,573,Wunderground v.1.15,2013-10-25 16:58:00,
2013-10-25 12:03:00,52.6,31.3,30.35,South,180,14.0,22.0,44,0.00,,,0.00,578,Wunderground v.1.15,2013-10-25 17:03:00,
2013-10-25 12:08:00,52.6,31.3,30.35,SSW,201,18.0,25.0,44,0.00,,,0.00,584,Wunderground v.1.15,2013-10-25 17:08:00,
2013-10-25 12:13:00,52.7,31.4,30.35,SSW,199,16.0,25.0,44,0.00,,,0.00,589,Wunderground v.1.15,2013-10-25 17:13:00,
2013-10-25 12:18:00,53.1,32.3,30.34,SSW,208,19.0,25.0,45,0.00,,,0.00,594,Wunderground v.1.15,2013-10-25 17:18:00,
2013-10-25 12:23:00,53.3,31.9,30.34,SSW,200,22.0,25.0,44,0.00,,,0.00,598,Wunderground v.1.15,2013-10-25 17:23:00,
2013-10-25 12:29:00,53.6,32.2,30.33,SSW,194,12.0,25.0,44,0.00,,,0.00,601,Wunderground v.1.15,2013-10-25 17:29:00,
2013-10-25 12:34:00,53.9,31.9,30.33,SSW,199,16.0,23.0,43,0.00,,,0.00,606,Wunderground v.1.15,2013-10-25 17:34:00,
2013-10-25 12:39:00,54.3,32.3,30.33,SSW,196,17.0,24.0,43,0.00,,,0.00,608,Wunderground v.1.15,2013-10-25 17:39:00,
2013-10-25 12:44:00,54.4,31.8,30.33,SSW,198,23.0,27.0,42,0.00,,,0.00,610,Wunderground v.1.15,2013-10-25 17:44:00,
2013-10-25 12:49:00,54.6,32.5,30.33,SSW,203,19.0,27.0,43,0.00,,,0.00,613,Wunderground v.1.15,2013-10-25 17:49:00,
2013-10-25 12:54:00,54.9,32.2,30.32,SSW,205,18.0,24.0,42,0.00,,,0.00,613,Wunderground v.1.15,2013-10-25 17:54:00,
2013-10-25 12:59:00,55.2,32.5,30.32,SSW,196,19.0,25.0,42,0.00,,,0.00,617,Wunderground v.1.15,2013-10-25 17:59:00,
2013-10-25 13:04:00,55.7,32.3,30.31,SW,214,19.0,23.0,41,0.00,,,0.00,615,Wunderground v.1.15,2013-10-25 18:04:00,
2013-10-25 13:09:00,55.9,31.9,30.31,SSW,213,16.0,30.0,40,0.00,,,0.00,617,Wunderground v.1.15,2013-10-25 18:09:00,
2013-10-25 13:15:00,55.9,31.9,30.30,SW,216,16.0,25.0,40,0.00,,,0.00,619,Wunderground v.1.15,2013-10-25 18:15:00,
2013-10-25 13:20:00,56.2,31.5,30.30,SSW,203,20.0,25.0,39,0.00,,,0.00,621,Wunderground v.1.15,2013-10-25 18:20:00,
2013-10-25 13:25:00,56.4,30.4,30.29,SW,214,14.0,26.0,37,0.00,,,0.00,619,Wunderground v.1.15,2013-10-25 18:25:00,
2013-10-25 13:30:00,56.8,30.8,30.29,SSW,209,22.0,26.0,37,0.00,,,0.00,613,Wunderground v.1.15,2013-10-25 18:30:00,
2013-10-25 13:35:00,57.0,31.0,30.28,SW,231,16.0,24.0,37,0.00,,,0.00,613,Wunderground v.1.15,2013-10-25 18:35:00,
2013-10-25 13:40:00,57.4,30.6,30.28,SSW,198,13.0,25.0,36,0.00,,,0.00,617,Wunderground v.1.15,2013-10-25 18:40:00,
2013-10-25 13:45:00,57.7,30.9,30.27,SSW,193,20.0,23.0,36,0.00,,,0.00,612,Wunderground v.1.15,2013-10-25 18:45:00,
2013-10-25 13:50:00,57.8,31.0,30.27,SW,220,19.0,25.0,36,0.00,,,0.00,606,Wunderground v.1.15,2013-10-25 18:50:00,
2013-10-25 13:55:00,57.8,31.0,30.27,SSW,212,14.0,25.0,36,0.00,,,0.00,608,Wunderground v.1.15,2013-10-25 18:55:00,
2013-10-25 14:00:00,57.8,31.0,30.26,SSW,204,22.0,26.0,36,0.00,,,0.00,605,Wunderground v.1.15,2013-10-25 19:00:00,
2013-10-25 14:05:00,58.2,31.3,30.26,SW,220,23.0,26.0,36,0.00,,,0.00,601,Wunderground v.1.15,2013-10-25 19:05:00,
2013-10-25 14:10:00,58.4,31.5,30.26,SSW,206,17.0,19.0,36,0.00,,,0.00,596,Wunderground v.1.15,2013-10-25 19:10:00,
2013-10-25 14:15:00,58.5,31.6,30.25,South,186,19.0,23.0,36,0.00,,,0.00,591,Wunderground v.1.15,2013-10-25 19:15:00,
2013-10-25 14:20:00,58.6,32.4,30.25,SSW,202,23.0,23.0,37,0.00,,,0.00,585,Wunderground v.1.15,2013-10-25 19:20:00,
2013-10-25 14:25:00,58.8,32.6,30.25,SSW,199,12.0,25.0,37,0.00,,,0.00,578,Wunderground v.1.15,2013-10-25 19:25:00,
2013-10-25 14:30:00,59.0,32.1,30.25,SSW,194,24.0,24.0,36,0.00,,,0.00,573,Wunderground v.1.15,2013-10-25 19:30:00,
2013-10-25 14:36:00,58.6,32.4,30.24,SW,216,22.0,26.0,37,0.00,,,0.00,564,Wunderground v.1.15,2013-10-25 19:36:00,
2013-10-25 14:41:00,58.6,32.4,30.23,SSW,213,17.0,22.0,37,0.00,,,0.00,561,Wunderground v.1.15,2013-10-25 19:41:00,
2013-10-25 14:46:00,58.6,32.4,30.23,SSW,197,15.0,24.0,37,0.00,,,0.00,550,Wunderground v.1.15,2013-10-25 19:46:00,
2013-10-25 14:51:00,58.8,31.9,30.23,SSW,209,14.0,22.0,36,0.00,,,0.00,545,Wunderground v.1.15,2013-10-25 19:51:00,
2013-10-25 14:56:00,58.8,32.6,30.22,SSW,209,17.0,25.0,37,0.00,,,0.00,538,Wunderground v.1.15,2013-10-25 19:56:00,
2013-10-25 15:02:00,59.0,32.1,30.22,SSW,201,18.0,24.0,36,0.00,,,0.00,527,Wunderground v.1.15,2013-10-25 20:02:00,
2013-10-25 15:07:00,58.9,32.0,30.21,SSW,213,20.0,25.0,36,0.00,,,0.00,520,Wunderground v.1.15,2013-10-25 20:07:00,
2013-10-25 15:12:00,58.9,32.0,30.21,SSW,202,15.0,20.0,36,0.00,,,0.00,513,Wunderground v.1.15,2013-10-25 20:12:00,
2013-10-25 15:17:00,58.9,31.3,30.21,South,187,13.0,26.0,35,0.00,,,0.00,503,Wunderground v.1.15,2013-10-25 20:17:00,
2013-10-25 15:22:00,59.1,31.4,30.20,SSW,204,22.0,24.0,35,0.00,,,0.00,490,Wunderground v.1.15,2013-10-25 20:22:00,
2013-10-25 15:27:00,59.1,30.7,30.20,SSW,202,22.0,24.0,34,0.00,,,0.00,480,Wunderground v.1.15,2013-10-25 20:27:00,
2013-10-25 15:32:00,59.3,30.9,30.20,SSW,213,23.0,25.0,34,0.00,,,0.00,475,Wunderground v.1.15,2013-10-25 20:32:00,
2013-10-25 15:37:00,59.5,31.1,30.20,SSW,204,19.0,25.0,34,0.00,,,0.00,464,Wunderground v.1.15,2013-10-25 20:37:00,
2013-10-25 15:42:00,59.5,30.3,30.20,SSW,212,13.0,23.0,33,0.00,,,0.00,450,Wunderground v.1.15,2013-10-25 20:42:00,
2013-10-25 15:47:00,59.4,31.0,30.19,SW,217,18.0,23.0,34,0.00,,,0.00,436,Wunderground v.1.15,2013-10-25 20:47:00,
2013-10-25 15:52:00,59.5,31.1,30.19,SSW,192,16.0,23.0,34,0.00,,,0.00,429,Wunderground v.1.15,2013-10-25 20:52:00,
2013-10-25 15:57:00,59.5,31.1,30.18,SSW,207,16.0,23.0,34,0.00,,,0.00,403,Wunderground v.1.15,2013-10-25 20:57:00,
2013-10-25 16:02:00,59.5,30.3,30.18,South,184,21.0,23.0,33,0.00,,,0.00,403,Wunderground v.1.15,2013-10-25 21:02:00,
2013-10-25 16:08:00,59.5,31.1,30.18,SSW,203,19.0,24.0,34,0.00,,,0.00,385,Wunderground v.1.15,2013-10-25 21:08:00,
2013-10-25 16:13:00,59.5,29.6,30.18,SSE,161,17.0,21.0,32,0.00,,,0.00,374,Wunderground v.1.15,2013-10-25 21:13:00,
2013-10-25 16:18:00,59.5,30.3,30.17,SSW,201,20.0,24.0,33,0.00,,,0.00,362,Wunderground v.1.15,2013-10-25 21:18:00,
2013-10-25 16:23:00,59.6,30.4,30.17,North,360,17.0,20.0,33,0.00,,,0.00,350,Wunderground v.1.15,2013-10-25 21:23:00,
2013-10-25 16:28:00,59.5,30.3,30.17,SSW,207,17.0,25.0,33,0.00,,,0.00,339,Wunderground v.1.15,2013-10-25 21:28:00,
2013-10-25 16:34:00,59.3,30.2,30.17,SW,218,21.0,24.0,33,0.00,,,0.00,323,Wunderground v.1.15,2013-10-25 21:34:00,
2013-10-25 16:39:00,59.1,29.2,30.17,SSW,196,17.0,24.0,32,0.00,,,0.00,309,Wunderground v.1.15,2013-10-25 21:39:00,
2013-10-25 16:44:00,58.9,29.8,30.16,SSW,207,17.0,23.0,33,0.00,,,0.00,292,Wunderground v.1.15,2013-10-25 21:44:00,
2013-10-25 16:49:00,58.5,29.5,30.16,SSW,207,18.0,26.0,33,0.00,,,0.00,281,Wunderground v.1.15,2013-10-25 21:49:00,
2013-10-25 16:54:00,58.6,29.6,30.16,SSW,202,14.0,20.0,33,0.00,,,0.00,267,Wunderground v.1.15,2013-10-25 21:54:00,
2013-10-25 16:59:00,58.4,29.4,30.16,SSW,207,21.0,27.0,33,0.00,,,0.00,250,Wunderground v.1.15,2013-10-25 21:59:00,
2013-10-25 17:04:00,58.1,29.1,30.16,SSW,205,19.0,25.0,33,0.00,,,0.00,142,Wunderground v.1.15,2013-10-25 22:04:00,
2013-10-25 17:09:00,57.6,29.4,30.15,SW,216,14.0,25.0,34,0.00,,,0.00,132,Wunderground v.1.15,2013-10-25 22:09:00,
2013-10-25 17:14:00,57.1,29.7,30.15,SSW,207,16.0,19.0,35,0.00,,,0.00,139,Wunderground v.1.15,2013-10-25 22:14:00,
2013-10-25 17:19:00,56.9,29.5,30.15,SSW,199,12.0,20.0,35,0.00,,,0.00,186,Wunderground v.1.15,2013-10-25 22:19:00,
2013-10-25 17:24:00,57.1,29.0,30.15,SSW,196,15.0,21.0,34,0.00,,,0.00,142,Wunderground v.1.15,2013-10-25 22:24:00,
2013-10-25 17:29:00,56.9,30.2,30.14,SSW,205,11.0,21.0,36,0.00,,,0.00,102,Wunderground v.1.15,2013-10-25 22:29:00,
2013-10-25 17:35:00,56.5,29.1,30.14,SSW,192,13.0,20.0,35,0.00,,,0.00,84,Wunderground v.1.15,2013-10-25 22:35:00,
2013-10-25 17:40:00,56.1,29.5,30.14,SSW,202,12.0,20.0,36,0.00,,,0.00,98,Wunderground v.1.15,2013-10-25 22:40:00,
2013-10-25 17:45:00,55.9,30.0,30.14,South,170,14.0,18.0,37,0.00,,,0.00,88,Wunderground v.1.15,2013-10-25 22:45:00,
2013-10-25 17:50:00,55.8,29.9,30.14,SSW,201,15.0,15.0,37,0.00,,,0.00,72,Wunderground v.1.15,2013-10-25 22:50:00,
2013-10-25 17:55:00,55.5,29.6,30.14,SSW,194,16.0,20.0,37,0.00,,,0.00,60,Wunderground v.1.15,2013-10-25 22:55:00,
2013-10-25 18:00:00,55.2,29.4,30.14,SSW,202,12.0,14.0,37,0.00,,,0.00,49,Wunderground v.1.15,2013-10-25 23:00:00,
2013-10-25 18:06:00,54.8,29.0,30.13,SSW,208,20.0,21.0,37,0.00,,,0.00,33,Wunderground v.1.15,2013-10-25 23:06:00,
2013-10-25 18:11:00,54.3,29.2,30.14,SSW,209,11.0,15.0,38,0.00,,,0.00,18,Wunderground v.1.15,2013-10-25 23:11:00,
2013-10-25 18:16:00,53.7,29.3,30.13,SSW,203,12.0,20.0,39,0.00,,,0.00,12,Wunderground v.1.15,2013-10-25 23:16:00,
2013-10-25 18:21:00,53.3,29.6,30.13,SSW,206,16.0,16.0,40,0.00,,,0.00,11,Wunderground v.1.15,2013-10-25 23:21:00,
2013-10-25 18:26:00,52.9,29.2,30.13,SSW,202,13.0,17.0,40,0.00,,,0.00,7,Wunderground v.1.15,2013-10-25 23:26:00,
2013-10-25 18:31:00,52.4,29.4,30.14,SSW,204,9.0,12.0,41,0.00,,,0.00,5,Wunderground v.1.15,2013-10-25 23:31:00,
2013-10-25 18:36:00,51.9,28.9,30.14,SSW,201,9.0,13.0,41,0.00,,,0.00,0,Wunderground v.1.15,2013-10-25 23:36:00,
2013-10-25 18:41:00,51.4,29.1,30.13,SSW,203,9.0,11.0,42,0.00,,,0.00,0,Wunderground v.1.15,2013-10-25 23:41:00,
2013-10-25 18:47:00,50.8,29.1,30.14,SSW,207,7.0,11.0,43,0.00,,,0.00,0,Wunderground v.1.15,2013-10-25 23:47:00,
2013-10-25 18:52:00,50.3,29.2,30.14,SSW,210,7.0,8.0,44,0.00,,,0.00,0,Wunderground v.1.15,2013-10-25 23:52:00,
2013-10-25 18:57:00,49.7,29.2,30.14,SSW,210,8.0,9.0,45,0.00,,,0.00,0,Wunderground v.1.15,2013-10-25 23:57:00,
2013-10-25 19:02:00,49.2,29.3,30.14,SSW,208,6.0,9.0,46,0.00,,,0.00,0,Wunderground v.1.15,2013-10-26 00:02:00,
2013-10-25 19:07:00,48.8,28.9,30.14,SSW,207,5.0,9.0,46,0.00,,,0.00,0,Wunderground v.1.15,2013-10-26 00:07:00,
2013-10-25 19:12:00,48.3,29.0,30.14,SSW,205,6.0,7.0,47,0.00,,,0.00,0,Wunderground v.1.15,2013-10-26 00:12:00,
2013-10-25 19:17:00,47.6,28.9,30.14,SSW,207,7.0,8.0,48,0.00,,,0.00,0,Wunderground v.1.15,2013-10-26 00:17:00,
2013-10-25 19:22:00,46.9,29.2,30.14,SSW,203,6.0,9.0,50,0.00,,,0.00,0,Wunderground v.1.15,2013-10-26 00:22:00,
2013-10-25 19:27:00,46.3,29.1,30.14,SSW,195,5.0,9.0,51,0.00,,,0.00,0,Wunderground v.1.15,2013-10-26 00:27:00,
2013-10-25 19:32:00,45.7,28.6,30.14,SSW,194,5.0,6.0,51,0.00,,,0.00,0,Wunderground v.1.15,2013-10-26 00:32:00,
2013-10-25 19:37:00,45.0,28.4,30.14,SSW,192,5.0,7.0,52,0.00,,,0.00,0,Wunderground v.1.15,2013-10-26 00:37:00,
2013-10-25 19:42:00,44.4,28.3,30.14,SSW,192,5.0,6.0,53,0.00,,,0.00,0,Wunderground v.1.15,2013-10-26 00:42:00,
2013-10-25 19:47:00,43.8,28.2,30.14,SSW,192,6.0,6.0,54,0.00,,,0.00,0,Wunderground v.1.15,2013-10-26 00:47:00,
2013-10-25 19:52:00,43.1,28.0,30.14,SSW,192,5.0,6.0,55,0.00,,,0.00,0,Wunderground v.1.15,2013-10-26 00:52:00,
2013-10-25 19:57:00,42.5,28.3,30.14,South,190,6.0,7.0,57,0.00,,,0.00,0,Wunderground v.1.15,2013-10-26 00:57:00,
2013-10-25 20:02:00,42.0,27.9,30.14,South,186,5.0,6.0,57,0.00,,,0.00,0,Wunderground v.1.15,2013-10-26 01:02:00,
2013-10-25 20:07:00,41.6,28.3,30.14,South,188,6.0,7.0,59,0.00,,,0.00,0,Wunderground v.1.15,2013-10-26 01:07:00,
2013-10-25 20:12:00,41.5,28.6,30.13,South,188,7.0,7.0,60,0.00,,,0.00,0,Wunderground v.1.15,2013-10-26 01:12:00,
2013-10-25 20:17:00,41.5,29.0,30.13,South,183,6.0,7.0,61,0.00,,,0.00,0,Wunderground v.1.15,2013-10-26 01:17:00,
2013-10-25 20:22:00,41.5,29.0,30.13,SSE,158,7.0,8.0,61,0.00,,,0.00,0,Wunderground v.1.15,2013-10-26 01:22:00,
2013-10-25 20:27:00,41.6,29.1,30.13,South,180,6.0,8.0,61,0.00,,,0.00,0,Wunderground v.1.15,2013-10-26 01:27:00,
2013-10-25 20:32:00,41.5,29.0,30.13,South,183,6.0,7.0,61,0.00,,,0.00,0,Wunderground v.1.15,2013-10-26 01:32:00,
2013-10-25 20:38:00,41.6,29.5,30.13,South,182,5.0,7.0,62,0.00,,,0.00,0,Wunderground v.1.15,2013-10-26 01:38:00,
2013-10-25 20:43:00,41.7,29.2,30.13,South,182,5.0,5.0,61,0.00,,,0.00,0,Wunderground v.1.15,2013-10-26 01:43:00,
2013-10-25 20:48:00,41.8,29.3,30.13,South,182,4.0,6.0,61,0.00,,,0.00,0,Wunderground v.1.15,2013-10-26 01:48:00,
2013-10-25 20:53:00,41.6,29.1,30.13,South,182,6.0,6.0,61,0.00,,,0.00,0,Wunderground v.1.15,2013-10-26 01:53:00,
2013-10-25 20:58:00,41.3,29.3,30.13,South,186,7.0,8.0,62,0.00,,,0.00,0,Wunderground v.1.15,2013-10-26 01:58:00,
2013-10-25 21:03:00,41.1,29.1,30.13,South,189,6.0,7.0,62,0.00,,,0.00,0,Wunderground v.1.15,2013-10-26 02:03:00,
2013-10-25 21:08:00,41.0,29.4,30.13,SSW,194,7.0,7.0,63,0.00,,,0.00,0,Wunderground v.1.15,2013-10-26 02:08:00,
2013-10-25 21:13:00,41.2,29.5,30.12,SSW,201,7.0,9.0,63,0.00,,,0.00,0,Wunderground v.1.15,2013-10-26 02:13:00,
2013-10-25 21:18:00,41.5,29.8,30.12,SSW,196,8.0,11.0,63,0.00,,,0.00,0,Wunderground v.1.15,2013-10-26 02:18:00,
2013-10-25 21:23:00,42.0,30.3,30.12,SSW,195,8.0,9.0,63,0.00,,,0.00,0,Wunderground v.1.15,2013-10-26 02:23:00,
2013-10-25 21:28:00,42.7,30.6,30.12,SSW,195,9.0,10.0,62,0.00,,,0.00,0,Wunderground v.1.15,2013-10-26 02:28:00,
2013-10-25 21:34:00,43.0,30.5,30.11,SSW,195,9.0,11.0,61,0.00,,,0.00,0,Wunderground v.1.15,2013-10-26 02:34:00,
2013-10-25 21:39:00,43.1,30.6,30.11,SSW,197,9.0,11.0,61,0.00,,,0.00,0,Wunderground v.1.15,2013-10-26 02:39:00,
2013-10-25 21:44:00,43.1,30.6,30.10,SSW,192,11.0,13.0,61,0.00,,,0.00,0,Wunderground v.1.15,2013-10-26 02:44:00,
2013-10-25 21:49:00,43.2,30.6,30.10,South,190,13.0,14.0,61,0.00,,,0.00,0,Wunderground v.1.15,2013-10-26 02:49:00,
2013-10-25 21:54:00,43.5,30.5,30.11,SSW,196,10.0,13.0,60,0.00,,,0.00,0,Wunderground v.1.15,2013-10-26 02:54:00,
2013-10-25 21:59:00,43.6,30.6,30.10,SSW,196,9.0,13.0,60,0.00,,,0.00,0,Wunderground v.1.15,2013-10-26 02:59:00,
2013-10-25 22:04:00,43.5,30.5,30.10,SSW,198,10.0,12.0,60,0.00,,,0.00,0,Wunderground v.1.15,2013-10-26 03:04:00,
2013-10-25 22:09:00,43.4,30.4,30.11,SSW,193,10.0,12.0,60,0.00,,,0.00,0,Wunderground v.1.15,2013-10-26 03:09:00,
2013-10-25 22:14:00,43.3,30.7,30.10,SSW,197,9.0,12.0,61,0.00,,,0.00,0,Wunderground v.1.15,2013-10-26 03:14:00,
2013-10-25 22:20:00,43.2,30.6,30.10,SSW,199,9.0,14.0,61,0.00,,,0.00,0,Wunderground v.1.15,2013-10-26 03:20:00,
2013-10-25 22:25:00,43.1,31.0,30.10,SSW,205,8.0,11.0,62,0.00,,,0.00,0,Wunderground v.1.15,2013-10-26 03:25:00,
2013-10-25 22:30:00,42.9,30.8,30.10,SSW,196,9.0,11.0,62,0.00,,,0.00,0,Wunderground v.1.15,2013-10-26 03:30:00,
2013-10-25 22:35:00,42.8,30.7,30.10,SSW,202,8.0,11.0,62,0.00,,,0.00,0,Wunderground v.1.15,2013-10-26 03:35:00,
2013-10-25 22:40:00,42.7,30.6,30.10,SSW,196,9.0,11.0,62,0.00,,,0.00,0,Wunderground v.1.15,2013-10-26 03:40:00,
2013-10-25 22:45:00,42.6,30.5,30.10,SSW,200,9.0,13.0,62,0.00,,,0.00,0,Wunderground v.1.15,2013-10-26 03:45:00,
2013-10-25 22:50:00,42.7,30.6,30.10,SSW,200,8.0,13.0,62,0.00,,,0.00,0,Wunderground v.1.15,2013-10-26 03:50:00,
2013-10-25 22:55:00,42.7,30.6,30.10,SSW,199,7.0,10.0,62,0.00,,,0.00,0,Wunderground v.1.15,2013-10-26 03:55:00,
2013-10-25 23:00:00,42.4,30.7,30.10,SSW,198,7.0,10.0,63,0.00,,,0.00,0,Wunderground v.1.15,2013-10-26 04:00:00,
2013-10-25 23:01:00,42.4,30.7,30.10,SSW,197,7.0,8.0,63,0.00,,,0.00,0,Wunderground v.1.15,2013-10-26 04:01:00,
2013-10-25 23:02:00,42.3,30.6,30.10,SSW,196,8.0,8.0,63,0.00,,,0.00,0,Wunderground v.1.15,2013-10-26 04:02:00,
2013-10-25 23:07:00,41.9,30.6,30.10,SSW,198,6.0,8.0,64,0.00,,,0.00,0,Wunderground v.1.15,2013-10-26 04:07:00,
2013-10-25 23:12:00,41.5,30.6,30.11,SSW,198,8.0,8.0,65,0.00,,,0.00,0,Wunderground v.1.15,2013-10-26 04:12:00,
2013-10-25 23:17:00,41.3,30.8,30.11,SSW,200,7.0,8.0,66,0.00,,,0.00,0,Wunderground v.1.15,2013-10-26 04:17:00,
2013-10-25 23:22:00,41.2,30.7,30.10,SSW,199,7.0,8.0,66,0.00,,,0.00,0,Wunderground v.1.15,2013-10-26 04:22:00,
2013-10-25 23:27:00,40.9,30.8,30.10,SSW,200,6.0,8.0,67,0.00,,,0.00,0,Wunderground v.1.15,2013-10-26 04:27:00,
2013-10-25 23:32:00,40.6,30.9,30.10,SSW,202,7.0,8.0,68,0.00,,,0.00,0,Wunderground v.1.15,2013-10-26 04:32:00,
2013-10-25 23:37:00,40.3,30.9,30.10,SSW,202,7.0,8.0,69,0.00,,,0.00,0,Wunderground v.1.15,2013-10-26 04:37:00,
2013-10-25 23:42:00,40.0,30.6,30.10,SSW,199,7.0,8.0,69,0.00,,,0.00,0,Wunderground v.1.15,2013-10-26 04:42:00,
2013-10-25 23:47:00,39.8,30.8,30.09,SSW,200,7.0,8.0,70,0.00,,,0.00,0,Wunderground v.1.15,2013-10-26 04:47:00,
2013-10-25 23:52:00,39.6,31.0,30.09,SSW,201,7.0,8.0,71,0.00,,,0.00,0,Wunderground v.1.15,2013-10-26 04:52:00,
2013-10-25 23:57:00,39.4,30.8,30.09,SSW,200,8.0,9.0,71,0.00,,,0.00,0,Wunderground v.1.15,2013-10-26 04:57:00,